createdAt,value
2023-01-23T00:01:41.916Z,6.43
2023-01-23T00:04:11.559Z,6.07
2023-01-23T00:06:40.865Z,6.50
2023-01-23T00:09:09.633Z,6.43
2023-01-23T00:11:37.820Z,6.63
2023-01-23T00:14:07.432Z,5.93
2023-01-23T00:16:35.641Z,6.20
2023-01-23T00:19:04.033Z,6.57
2023-01-23T00:21:32.665Z,6.23
2023-01-23T00:24:02.504Z,6.30
2023-01-23T00:26:33.835Z,6.20
2023-01-23T00:29:02.164Z,6.90
2023-01-23T00:31:35.138Z,6.73
2023-01-23T00:34:06.285Z,7.10
2023-01-23T00:36:36.850Z,6.30
2023-01-23T00:39:09.603Z,6.27
2023-01-23T00:41:37.812Z,6.40
2023-01-23T00:44:06.171Z,6.37
2023-01-23T00:46:35.828Z,6.53
2023-01-23T00:49:04.661Z,6.60
2023-01-23T00:51:33.590Z,7.00
2023-01-23T00:54:02.700Z,6.37
2023-01-23T00:56:31.090Z,6.40
2023-01-23T00:58:59.393Z,6.73
2023-01-23T01:01:29.011Z,6.63
2023-01-23T01:03:59.547Z,6.40
2023-01-23T01:06:29.760Z,6.27
2023-01-23T01:08:59.683Z,6.53
2023-01-23T01:11:28.504Z,6.73
2023-01-23T01:14:01.392Z,6.37
2023-01-23T01:16:36.191Z,7.00
2023-01-23T01:19:06.069Z,7.10
2023-01-23T01:21:35.883Z,6.57
2023-01-23T01:24:04.220Z,7.87
2023-01-23T01:26:32.578Z,7.60
2023-01-23T01:29:00.844Z,7.60
2023-01-23T01:31:29.189Z,7.80
2023-01-23T01:33:57.399Z,7.73
2023-01-23T01:36:27.503Z,7.30
2023-01-23T01:38:55.719Z,8.13
2023-01-23T01:41:28.483Z,7.80
2023-01-23T01:43:57.474Z,8.10
2023-01-23T01:46:27.698Z,8.60
2023-01-23T01:49:12.507Z,9.10
2023-01-23T01:51:55.792Z,8.13
2023-01-23T01:54:28.603Z,7.93
2023-01-23T01:57:01.605Z,8.20
2023-01-23T01:59:33.541Z,8.77
2023-01-23T02:02:08.032Z,8.83
2023-01-23T02:04:40.159Z,8.50
2023-01-23T02:07:18.443Z,9.03
2023-01-23T02:09:47.413Z,8.57
2023-01-23T02:12:15.631Z,9.30
2023-01-23T02:14:44.211Z,9.67
2023-01-23T02:17:12.791Z,9.50
2023-01-23T02:19:49.329Z,10.13
2023-01-23T02:22:38.442Z,9.53
2023-01-23T02:25:16.424Z,8.87
2023-01-23T02:27:48.581Z,9.30
2023-01-23T02:30:18.707Z,9.57
2023-01-23T02:32:47.366Z,10.33
2023-01-23T02:35:21.641Z,9.93
2023-01-23T02:37:53.986Z,9.47
2023-01-23T02:40:32.871Z,9.83
2023-01-23T02:43:04.416Z,10.73
2023-01-23T02:45:33.147Z,9.33
2023-01-23T02:48:01.816Z,10.10
2023-01-23T02:50:39.321Z,9.27
2023-01-23T02:53:08.470Z,9.90
2023-01-23T02:55:39.349Z,10.40
2023-01-23T02:58:23.202Z,9.47
2023-01-23T03:00:51.928Z,9.93
2023-01-23T03:03:20.141Z,10.00
2023-01-23T03:05:48.745Z,9.53
2023-01-23T03:08:17.189Z,9.83
2023-01-23T03:10:45.738Z,11.07
2023-01-23T03:13:15.322Z,10.60
2023-01-23T03:15:44.794Z,11.73
2023-01-23T03:18:13.282Z,10.63
2023-01-23T03:20:42.777Z,11.10
2023-01-23T03:23:10.978Z,10.30
2023-01-23T03:25:44.691Z,10.93
2023-01-23T03:28:28.993Z,11.70
2023-01-23T03:30:57.412Z,11.57
2023-01-23T03:33:25.847Z,11.30
2023-01-23T03:35:54.081Z,10.53
2023-01-23T03:38:22.933Z,11.27
2023-01-23T03:41:14.756Z,10.10
2023-01-23T03:43:44.743Z,11.37
2023-01-23T03:46:13.679Z,12.00
2023-01-23T03:48:41.914Z,11.30
2023-01-23T03:51:10.297Z,11.30
2023-01-23T03:53:38.776Z,11.13
2023-01-23T03:56:07.993Z,11.33
2023-01-23T03:58:36.280Z,11.67
2023-01-23T04:01:09.569Z,11.30
2023-01-23T04:03:40.691Z,10.97
2023-01-23T04:06:09.275Z,9.80
2023-01-23T04:08:38.151Z,11.40
2023-01-23T04:11:09.334Z,11.30
2023-01-23T04:13:40.014Z,12.57
2023-01-23T04:16:09.935Z,12.33
2023-01-23T04:18:38.186Z,11.87
2023-01-23T04:21:07.353Z,11.10
2023-01-23T04:23:35.680Z,12.60
2023-01-23T04:26:04.422Z,10.50
2023-01-23T04:28:32.830Z,10.80
2023-01-23T04:31:01.677Z,12.03
2023-01-23T04:33:34.062Z,11.77
2023-01-23T04:36:06.375Z,10.57
2023-01-23T04:38:37.006Z,12.17
2023-01-23T04:41:26.505Z,12.43
2023-01-23T04:44:20.089Z,11.10
2023-01-23T04:47:07.005Z,11.57
2023-01-23T04:49:37.440Z,11.50
2023-01-23T04:52:06.389Z,12.83
2023-01-23T04:54:38.895Z,13.27
2023-01-23T04:57:07.221Z,12.23
2023-01-23T04:59:36.581Z,13.10
2023-01-23T05:02:30.631Z,12.77
2023-01-23T05:05:00.705Z,12.63
2023-01-23T05:07:30.236Z,13.27
2023-01-23T05:10:09.609Z,11.70
2023-01-23T05:12:38.461Z,12.43
2023-01-23T05:15:08.114Z,11.57
2023-01-23T05:17:39.970Z,11.83
2023-01-23T05:20:11.690Z,11.67
2023-01-23T05:22:52.209Z,11.73
2023-01-23T05:25:24.728Z,11.30
2023-01-23T05:27:54.542Z,10.23
2023-01-23T05:30:24.426Z,11.70
2023-01-23T05:32:57.921Z,11.83
2023-01-23T05:35:28.368Z,10.57
2023-01-23T05:37:56.644Z,10.93
2023-01-23T05:40:26.270Z,11.00
2023-01-23T05:43:16.188Z,10.23
2023-01-23T05:46:03.956Z,10.57
2023-01-23T05:48:58.610Z,10.83
2023-01-23T05:51:32.342Z,10.87
2023-01-23T05:54:02.733Z,10.73
2023-01-23T05:56:31.487Z,11.53
2023-01-23T05:59:18.420Z,11.33
2023-01-23T06:02:03.950Z,12.00
2023-01-23T06:04:41.511Z,11.33
2023-01-23T06:07:21.878Z,11.13
2023-01-23T06:09:53.536Z,10.47
2023-01-23T06:12:21.719Z,10.67
2023-01-23T06:14:50.294Z,11.27
2023-01-23T06:17:18.749Z,9.03
2023-01-23T06:19:46.970Z,7.63
2023-01-23T06:22:16.481Z,7.80
2023-01-23T06:25:03.729Z,8.40
2023-01-23T06:27:31.979Z,8.27
2023-01-23T06:30:04.667Z,7.53
2023-01-23T06:32:35.778Z,7.83
2023-01-23T06:35:06.844Z,7.37
2023-01-23T06:37:39.015Z,7.30
2023-01-23T06:40:13.174Z,6.83
2023-01-23T06:42:44.827Z,6.57
2023-01-23T06:45:13.784Z,6.43
2023-01-23T06:47:42.019Z,7.30
2023-01-23T06:50:11.826Z,7.27
2023-01-23T06:52:40.669Z,7.03
2023-01-23T06:55:13.197Z,7.80
2023-01-23T06:57:42.823Z,7.30
2023-01-23T07:00:13.695Z,7.23
2023-01-23T07:02:44.617Z,7.50
2023-01-23T07:05:39.519Z,7.63
2023-01-23T07:08:08.564Z,7.53
2023-01-23T07:10:38.874Z,8.00
2023-01-23T07:13:07.487Z,8.53
2023-01-23T07:15:35.910Z,7.27
2023-01-23T07:18:04.663Z,6.33
2023-01-23T07:20:33.043Z,7.60
2023-01-23T07:23:04.758Z,7.77
2023-01-23T07:25:32.993Z,7.47
2023-01-23T07:28:02.547Z,7.37
2023-01-23T07:30:30.701Z,7.37
2023-01-23T07:32:59.125Z,7.90
2023-01-23T07:35:28.496Z,7.50
2023-01-23T07:37:57.092Z,7.87
2023-01-23T07:40:25.581Z,7.93
2023-01-23T07:42:53.703Z,8.23
2023-01-23T07:45:23.247Z,8.50
2023-01-23T07:47:51.397Z,8.43
2023-01-23T07:50:19.907Z,7.87
2023-01-23T07:52:48.430Z,8.37
2023-01-23T07:55:16.655Z,9.10
2023-01-23T07:57:44.827Z,8.57
2023-01-23T08:00:13.912Z,8.80
2023-01-23T08:02:43.430Z,8.80
2023-01-23T08:05:11.796Z,8.70
2023-01-23T08:07:40.060Z,9.07
2023-01-23T08:10:09.844Z,9.10
2023-01-23T08:12:38.024Z,7.87
2023-01-23T08:15:07.976Z,9.20
2023-01-23T08:17:36.490Z,8.53
2023-01-23T08:20:07.427Z,8.40
2023-01-23T08:22:37.308Z,8.40
2023-01-23T08:25:06.996Z,8.37
2023-01-23T08:27:35.192Z,8.57
2023-01-23T08:30:03.508Z,9.53
2023-01-23T08:32:31.702Z,8.70
2023-01-23T08:34:59.931Z,8.33
2023-01-23T08:37:29.643Z,8.13
2023-01-23T08:39:57.815Z,8.27
2023-01-23T08:42:25.978Z,8.57
2023-01-23T08:44:54.170Z,8.10
2023-01-23T08:47:22.758Z,8.57
2023-01-23T08:49:50.967Z,8.00
2023-01-23T08:52:19.139Z,9.07
2023-01-23T08:54:48.628Z,9.33
2023-01-23T08:57:16.762Z,9.77
2023-01-23T08:59:45.614Z,8.97
2023-01-23T09:02:14.191Z,9.17
2023-01-23T09:04:42.464Z,8.67
2023-01-23T09:07:11.418Z,8.90
2023-01-23T09:09:39.578Z,8.53
2023-01-23T09:12:09.283Z,8.93
2023-01-23T09:14:37.455Z,9.20
2023-01-23T09:17:06.431Z,9.30
2023-01-23T09:19:35.459Z,8.57
2023-01-23T09:22:03.965Z,8.53
2023-01-23T09:24:32.108Z,9.47
2023-01-23T09:27:00.387Z,9.23
2023-01-23T09:29:30.257Z,8.80
2023-01-23T09:32:00.983Z,8.57
2023-01-23T09:34:54.867Z,9.73
2023-01-23T09:37:23.118Z,7.93
2023-01-23T09:39:51.290Z,8.77
2023-01-23T09:42:30.715Z,9.03
2023-01-23T09:45:05.316Z,9.10
2023-01-23T09:47:40.548Z,9.43
2023-01-23T09:50:16.743Z,8.77
2023-01-23T09:52:54.213Z,8.23
2023-01-23T09:55:33.834Z,9.50
2023-01-23T09:58:03.473Z,8.53
2023-01-23T10:00:36.367Z,8.87
2023-01-23T10:03:15.538Z,8.90
2023-01-23T10:05:58.209Z,8.47
2023-01-23T10:08:35.126Z,10.00
2023-01-23T10:11:08.314Z,8.83
2023-01-23T10:14:08.230Z,8.57
2023-01-23T10:16:55.777Z,8.97
2023-01-23T10:19:56.288Z,8.03
2023-01-23T10:22:37.674Z,10.03
2023-01-23T10:25:14.312Z,8.97
2023-01-23T10:27:48.409Z,9.30
2023-01-23T10:30:28.335Z,9.13
2023-01-23T10:33:02.624Z,9.90
2023-01-23T10:35:37.997Z,9.50
2023-01-23T10:38:14.877Z,9.77
2023-01-23T10:41:00.884Z,9.30
2023-01-23T10:43:29.079Z,9.33
2023-01-23T10:45:57.376Z,9.97
2023-01-23T10:48:41.406Z,9.67
2023-01-23T10:51:35.602Z,9.70
2023-01-23T10:54:30.940Z,10.03
2023-01-23T10:57:02.317Z,9.87
2023-01-23T10:59:35.108Z,9.90
2023-01-23T11:02:20.979Z,9.53
2023-01-23T11:04:52.712Z,9.93
2023-01-23T11:07:23.655Z,9.13
2023-01-23T11:09:56.417Z,9.50
2023-01-23T11:12:27.963Z,9.33
2023-01-23T11:15:22.265Z,9.27
2023-01-23T11:17:53.337Z,9.20
2023-01-23T11:20:31.830Z,9.30
2023-01-23T11:23:06.683Z,8.80
2023-01-23T11:25:38.440Z,9.13
2023-01-23T11:28:23.766Z,9.10
2023-01-23T11:31:12.333Z,9.10
2023-01-23T11:33:47.800Z,9.17
2023-01-23T11:36:43.845Z,8.97
2023-01-23T11:39:22.301Z,7.53
2023-01-23T11:41:50.546Z,8.33
2023-01-23T11:44:22.634Z,9.00
2023-01-23T11:47:30.759Z,8.70
2023-01-23T11:50:19.519Z,8.63
2023-01-23T11:52:59.244Z,8.10
2023-01-23T11:56:06.385Z,8.50
2023-01-23T11:59:17.978Z,7.80
2023-01-23T12:02:14.683Z,8.47
2023-01-23T12:05:18.536Z,7.73
2023-01-23T12:08:01.711Z,7.73
2023-01-23T12:10:37.693Z,9.13
2023-01-23T12:13:24.503Z,8.80
2023-01-23T12:16:11.330Z,8.97
2023-01-23T12:18:48.120Z,9.37
2023-01-23T12:21:20.406Z,9.20
2023-01-23T12:24:10.434Z,9.77
2023-01-23T12:26:54.864Z,8.30
2023-01-23T12:29:45.709Z,9.53
2023-01-23T12:32:36.502Z,11.23
2023-01-23T12:35:28.228Z,10.47
2023-01-23T12:38:14.235Z,9.60
2023-01-23T12:40:48.975Z,9.33
2023-01-23T12:43:34.468Z,9.27
2023-01-23T12:46:07.382Z,8.77
2023-01-23T12:48:43.185Z,9.77
2023-01-23T12:51:19.827Z,9.43
2023-01-23T12:53:54.900Z,9.20
2023-01-23T12:56:30.885Z,9.40
2023-01-23T12:59:14.205Z,8.90
2023-01-23T13:01:57.095Z,10.10
2023-01-23T13:04:58.304Z,9.67
2023-01-23T13:07:48.452Z,9.07
2023-01-23T13:10:58.773Z,9.03
2023-01-23T13:13:28.938Z,9.73
2023-01-23T13:16:10.507Z,8.53
2023-01-23T13:18:53.621Z,9.37
2023-01-23T13:21:39.531Z,8.83
2023-01-23T13:24:56.841Z,10.73
2023-01-23T13:27:46.168Z,9.27
2023-01-23T13:30:42.486Z,9.53
2023-01-23T13:33:55.323Z,9.50
2023-01-23T13:36:37.689Z,9.40
2023-01-23T13:39:24.247Z,9.53
2023-01-23T13:42:43.890Z,10.10
2023-01-23T13:45:32.137Z,9.37
2023-01-23T14:22:08.871Z,8.53
2023-01-23T14:24:45.482Z,9.50
2023-01-23T14:27:29.464Z,9.60
2023-01-23T14:30:00.398Z,8.87
2023-01-23T14:32:34.742Z,10.53
2023-01-23T14:35:02.989Z,9.23
2023-01-23T14:37:39.876Z,9.70
2023-01-23T14:40:25.892Z,8.60
2023-01-23T14:43:02.931Z,9.37
2023-01-23T14:45:33.816Z,9.17
2023-01-23T14:48:07.252Z,11.83
2023-01-23T14:50:36.044Z,10.30
2023-01-23T14:53:08.118Z,9.73
2023-01-23T14:55:40.983Z,9.13
2023-01-23T14:58:16.395Z,10.00
2023-01-23T15:00:47.049Z,9.23
2023-01-23T15:03:36.309Z,15.27
2023-01-23T15:06:11.272Z,14.67
2023-01-23T15:08:41.541Z,11.53
2023-01-23T15:11:13.311Z,9.87
2023-01-23T15:13:50.314Z,9.97
2023-01-23T15:16:23.987Z,9.87
2023-01-23T15:19:01.570Z,9.93
2023-01-23T15:21:35.055Z,11.00
2023-01-23T15:24:28.229Z,10.63
2023-01-23T15:27:06.264Z,9.60
2023-01-23T15:29:36.644Z,10.83
2023-01-23T15:32:17.235Z,9.37
2023-01-23T15:34:55.226Z,10.50
2023-01-23T15:37:26.337Z,10.27
2023-01-23T15:40:00.761Z,10.17
2023-01-23T15:42:32.182Z,10.07
2023-01-23T15:45:01.981Z,10.53
2023-01-23T15:47:31.086Z,9.83
2023-01-23T15:50:01.579Z,10.10
2023-01-23T15:52:45.543Z,9.33
2023-01-23T15:55:15.597Z,10.53
2023-01-23T15:57:43.990Z,9.40
2023-01-23T16:00:17.597Z,10.23
2023-01-23T16:02:55.660Z,9.37
2023-01-23T16:05:28.241Z,9.13
2023-01-23T16:07:57.752Z,8.90
2023-01-23T16:10:30.675Z,9.67
2023-01-23T16:12:59.571Z,10.10
2023-01-23T16:15:30.250Z,9.67
2023-01-23T16:17:58.837Z,9.77
2023-01-23T16:20:30.277Z,9.73
2023-01-23T16:23:11.746Z,9.73
2023-01-23T16:25:45.739Z,8.73
2023-01-23T16:28:15.087Z,9.40
2023-01-23T16:30:43.791Z,9.77
2023-01-23T16:33:12.094Z,8.37
2023-01-23T16:35:40.846Z,9.60
2023-01-23T16:38:15.930Z,8.93
2023-01-23T16:40:45.447Z,8.47
2023-01-23T16:43:13.657Z,8.47
2023-01-23T16:45:41.787Z,8.43
2023-01-23T16:48:15.445Z,7.90
2023-01-23T16:50:55.701Z,9.03
2023-01-23T16:53:27.683Z,8.37
2023-01-23T16:55:59.511Z,8.50
2023-01-23T16:58:34.325Z,8.27
2023-01-23T17:01:06.359Z,8.13
2023-01-23T17:03:37.806Z,8.43
2023-01-23T17:06:06.781Z,8.77
2023-01-23T17:08:38.285Z,8.17
2023-01-23T17:11:08.742Z,8.00
2023-01-23T17:13:37.100Z,8.47
2023-01-23T17:16:18.666Z,8.43
2023-01-23T17:18:53.869Z,9.73
2023-01-23T17:21:24.593Z,10.70
2023-01-23T17:23:53.326Z,9.20
2023-01-23T17:26:22.902Z,8.53
2023-01-23T17:28:51.339Z,9.80
2023-01-23T17:31:24.720Z,9.90
2023-01-23T17:33:53.545Z,10.90
2023-01-23T17:36:21.749Z,9.73
2023-01-23T17:38:50.292Z,9.50
2023-01-23T17:41:18.650Z,9.60
2023-01-23T17:43:48.502Z,10.60
2023-01-23T17:46:27.281Z,8.33
2023-01-23T17:48:56.578Z,10.00
2023-01-23T17:51:27.063Z,8.50
2023-01-23T17:53:56.091Z,9.90
2023-01-23T17:56:24.623Z,9.20
2023-01-23T17:58:54.134Z,9.97
2023-01-23T18:01:25.968Z,9.47
2023-01-23T18:03:54.893Z,8.13
2023-01-23T18:06:23.046Z,9.83
2023-01-23T18:08:51.343Z,9.87
2023-01-23T18:11:22.501Z,10.07
2023-01-23T18:14:15.292Z,9.57
2023-01-23T18:16:48.119Z,9.20
2023-01-23T18:19:18.957Z,9.13
2023-01-23T18:21:50.831Z,9.47
2023-01-23T18:24:26.923Z,9.93
2023-01-23T18:27:01.923Z,9.83
2023-01-23T18:29:46.652Z,8.90
2023-01-23T18:32:47.891Z,9.47
2023-01-23T18:35:31.862Z,9.27
2023-01-23T18:38:11.861Z,9.27
2023-01-23T18:40:51.328Z,9.73
2023-01-23T18:43:35.559Z,10.30
2023-01-23T18:46:06.070Z,9.90
2023-01-23T18:48:36.198Z,8.93
2023-01-23T18:51:21.918Z,10.23
2023-01-23T18:54:02.029Z,9.30
2023-01-23T18:56:42.206Z,10.17
2023-01-23T18:59:20.545Z,9.37
2023-01-23T19:01:54.967Z,9.77
2023-01-23T19:04:40.913Z,9.87
2023-01-23T19:07:18.401Z,9.17
2023-01-23T19:09:48.369Z,10.27
2023-01-23T19:12:28.678Z,9.47
2023-01-23T19:15:11.796Z,10.67
2023-01-23T19:17:49.042Z,9.60
2023-01-23T19:20:40.691Z,10.20
2023-01-23T19:23:22.999Z,9.43
2023-01-23T19:25:51.665Z,8.83
2023-01-23T19:28:20.627Z,10.47
2023-01-23T19:30:49.520Z,9.63
2023-01-23T19:33:20.994Z,9.80
2023-01-23T19:35:51.265Z,10.13
2023-01-23T19:38:19.437Z,10.87
2023-01-23T19:40:47.724Z,11.37
2023-01-23T19:43:17.078Z,11.27
2023-01-23T19:45:46.008Z,11.40
2023-01-23T19:48:15.404Z,9.90
2023-01-23T19:50:44.940Z,10.60
2023-01-23T19:53:14.872Z,9.07
2023-01-23T19:55:43.206Z,10.07
2023-01-23T19:58:11.473Z,9.83
2023-01-23T20:00:39.709Z,10.13
2023-01-23T20:03:07.904Z,9.90
2023-01-23T20:05:36.080Z,9.47
2023-01-23T20:08:06.133Z,9.27
2023-01-23T20:10:35.615Z,9.70
2023-01-23T20:13:03.831Z,9.23
2023-01-23T20:15:33.747Z,9.90
2023-01-23T20:18:01.904Z,8.90
2023-01-23T20:20:30.112Z,10.27
2023-01-23T20:22:58.294Z,9.50
2023-01-23T20:25:27.843Z,10.23
2023-01-23T20:27:56.049Z,10.00
2023-01-23T20:30:24.759Z,9.77
2023-01-23T20:32:53.205Z,9.67
2023-01-23T20:35:21.624Z,9.57
2023-01-23T20:37:49.814Z,9.97
2023-01-23T20:40:18.504Z,9.33
2023-01-23T20:42:48.170Z,10.10
2023-01-23T20:45:16.531Z,9.30
2023-01-23T20:47:44.766Z,9.47
2023-01-23T20:50:13.299Z,9.63
2023-01-23T20:52:59.335Z,10.40
2023-01-23T20:55:27.520Z,9.43
2023-01-23T20:58:14.867Z,8.87
2023-01-23T21:00:44.740Z,10.00
2023-01-23T21:03:14.723Z,9.47
2023-01-23T21:05:48.407Z,9.57
2023-01-23T21:08:17.999Z,9.87
2023-01-23T21:10:46.160Z,9.47
2023-01-23T21:13:15.941Z,9.40
2023-01-23T21:15:44.304Z,10.07
2023-01-23T21:18:12.515Z,9.10
2023-01-23T21:20:40.763Z,8.93
2023-01-23T21:23:08.925Z,10.30
2023-01-23T21:25:37.600Z,10.80
2023-01-23T21:28:05.960Z,10.50
2023-01-23T21:30:35.928Z,10.33
2023-01-23T21:33:04.700Z,10.13
2023-01-23T21:35:33.121Z,9.93
2023-01-23T21:38:02.007Z,10.73
2023-01-23T21:40:30.216Z,10.17
2023-01-23T21:42:58.409Z,9.67
2023-01-23T21:45:26.983Z,10.77
2023-01-23T21:47:56.631Z,10.10
2023-01-23T21:50:24.780Z,11.20
2023-01-23T21:52:52.975Z,10.03
2023-01-23T21:55:21.462Z,10.63
2023-01-23T21:57:51.041Z,10.93
2023-01-23T22:00:37.682Z,11.10
2023-01-23T22:03:07.234Z,11.20
2023-01-23T22:05:36.524Z,10.73
2023-01-23T22:08:05.831Z,10.80
2023-01-23T22:10:33.984Z,10.93
2023-01-23T22:13:02.525Z,11.27
2023-01-23T22:15:30.720Z,10.67
2023-01-23T22:17:58.905Z,11.33
2023-01-23T22:20:28.437Z,11.10
2023-01-23T22:22:56.991Z,11.00
2023-01-23T22:25:25.168Z,12.47
2023-01-23T22:27:53.348Z,10.83
2023-01-23T22:30:21.746Z,11.30
2023-01-23T22:32:49.976Z,11.13
2023-01-23T22:35:18.474Z,12.93
2023-01-23T22:37:48.052Z,12.30
2023-01-23T22:40:16.405Z,11.23
2023-01-23T22:42:44.614Z,12.00
2023-01-23T22:45:13.255Z,11.77
2023-01-23T22:47:41.517Z,12.27
2023-01-23T22:50:11.716Z,12.60
2023-01-23T22:52:41.438Z,12.20
2023-01-23T22:55:11.763Z,12.47
2023-01-23T22:57:40.319Z,12.83
2023-01-23T23:00:13.855Z,13.20
2023-01-23T23:02:51.299Z,12.97
2023-01-23T23:05:19.825Z,12.17
2023-01-23T23:07:48.162Z,11.30
2023-01-23T23:10:17.844Z,12.47
2023-01-23T23:12:46.011Z,12.50
2023-01-23T23:15:15.937Z,12.53
2023-01-23T23:17:44.097Z,12.60
2023-01-23T23:20:13.620Z,12.93
2023-01-23T23:22:43.800Z,12.17
2023-01-23T23:25:12.181Z,12.03
2023-01-23T23:27:41.747Z,12.43
2023-01-23T23:30:11.674Z,12.00
2023-01-23T23:32:40.031Z,12.33
2023-01-23T23:35:10.263Z,12.47
2023-01-23T23:37:39.101Z,12.30
2023-01-23T23:40:09.116Z,11.73
2023-01-23T23:42:37.356Z,11.60
2023-01-23T23:45:08.948Z,12.30
2023-01-23T23:47:37.113Z,11.80
2023-01-23T23:50:06.147Z,11.87
2023-01-23T23:52:36.011Z,11.90
2023-01-23T23:55:05.925Z,11.37
2023-01-23T23:57:34.119Z,11.53
